Tiempo atmosférico en la estación meteorológica de La Pobla de Massaluca, Tarragona (365 m.)



Fecha
DESCASC
Temp. máxima en grados centígrados (hora)
DESCASC
Temp. mínima en grados centígrados (hora)
DESCASC
Temp. media en grados centígrados
DESCASC
Racha de viento máxima en m/sg (hora)
DESCASC
Velocidad máxima media en intervalos de 10 minutos(hora)
DESCASC
Precipitaciones diarias en mm
DESCASC
Precipitaciones de 00:00 a 06:00 en mm
DESCASC
Precipitaciones de 06:00 a 12:00 en mm
DESCASC
Precipitaciones de 12:00 a 18:00 en mm
DESCASC
Precipitaciones de 18:00 a 24:00 en mm
DESCASC
28-02-2021 13.4 (14:30) 7 (07:40) 10.2 12.22 (14:50) 5 (14:50) 0 0 0 0 0
27-02-2021 15.2 (16:00) 6 (05:40) 10.6 9.44 (11:30) 5.83 (11:30) 0 0 0 0 0
26-02-2021 11.8 (17:10) 7.3 (03:10) 9.6 3.61 (15:30) 2.5 (02:20) 0 0 0 0 0
25-02-2021 16 (14:30) 8.3 (00:00) 12.2 9.17 (14:40) 5 (14:40) 0 0 0 0 0
24-02-2021 14.9 (16:10) 9 (00:00) 11.9 11.11 (11:00) 6.67 (11:10) 0 0 0 0 0
23-02-2021 15.3 (16:30) 6.3 (00:00) 10.8 6.94 (23:40) 3.61 (17:50) 0 0 0 0 0
22-02-2021 12.5 (03:20) 6.3 (00:00) 9.4 18.61 (02:00) 9.17 (02:00) 9.8 0 9.8 0 0
21-02-2021 12.9 (14:30) 8.2 (00:00) 10.5 16.67 (11:10) 9.72 (16:10) 0 0 0 0 0
20-02-2021 13.6 (13:40) 6.4 (00:00) 10 13.61 (14:10) 6.39 (13:50) 0 0 0 0 0
19-02-2021 17.7 (15:10) 7.3 (00:00) 12.5 9.72 (15:40) 4.17 (18:20) 0 0 0 0 0
18-02-2021 15.9 (15:50) 4.6 (00:00) 10.2 5.83 (12:00) 3.06 (05:10) 0 0 0 0 0
17-02-2021 18 (16:20) 8 (00:00) 13 6.39 (17:20) 3.33 (17:20) 0 0 0 0 0
16-02-2021 16.2 (16:40) 5.5 (00:00) 10.9 6.11 (00:10) 3.89 (23:00) 0 0 0 0 0
15-02-2021 11.3 (14:50) 6.5 (00:00) 8.9 10 (13:00) 4.44 (17:00) 0 0 0 0 0
14-02-2021 10.1 (15:50) 6.4 (00:00) 8.3 10.83 (17:50) 5.56 (17:20) 0 0 0 0 0
13-02-2021 14.8 (13:50) 8 (00:00) 11.4 16.39 (01:00) 10 (00:50) 0 0 0 0 0
12-02-2021 13.3 (00:00) 10.1 (00:00) 11.7 17.78 (18:40) 10.83 (19:10) 0.8 0 0.2 0.6 0
11-02-2021 17.5 (16:10) 6.1 (00:00) 11.8 9.17 (14:30) 6.67 (14:30) 0 0 0 0 0
10-02-2021 13 (16:30) 6 (00:00) 9.5 18.33 (12:40) 12.5 (12:40) 6.8 0.2 6.6 0 0
09-02-2021 12.8 (15:40) 6.7 (00:00) 9.8 9.17 (16:00) 5.83 (20:40) 2.2 0 0 1 1.2
08-02-2021 13.4 (15:30) 6 (00:00) 9.7 15 (16:40) 9.72 (16:20) 3.6 0 3.2 0.4 0
07-02-2021 10.7 (15:50) 4.2 (00:00) 7.4 18.06 (10:40) 10.56 (14:20) 0.2 0 0.2 0 0
06-02-2021 15.4 (14:30) 6.9 (00:00) 11.1 10.83 (18:30) 7.5 (18:30) 0.4 0 0 0 0.4
05-02-2021 13.1 (15:30) 8.4 (00:00) 10.8 13.61 (11:00) 6.11 (16:40) 0 0 0 0 0
04-02-2021 15.6 (14:50) 9.3 (00:00) 12.5 10.83 (16:10) 6.39 (16:10) 0 0 0 0 0
03-02-2021 15.8 (15:30) 7.3 (00:00) 11.6 4.17 (14:00) 2.78 (14:00) 0 0 0 0 0
02-02-2021 18.7 (15:50) 10.5 (08:20) 14.6 13.33 (12:20) 8.33 (12:20) 0 0 0 0 0
01-02-2021 16.4 (14:20) 11.1 (00:00) 13.8 18.61 (01:10) 13.33 (12:10) 0 0 0 0 0
31-01-2021 15.8 (17:10) 7.3 (00:00) 11.6 24.72 (12:20) 15.83 (12:10) 0 0 0 0 0

Gráficas

Temp. máximas Temp. mínimas Temp. medias Precipitaciones Rachas de viento máximas Velocidades máximas media en intervalos de 10 minutos

Datos horarios

Fecha y hora oficial Temperatura (ºC) Velocidad del viento (km/h) Dirección del viento Racha (km/h) Dirección de racha Precipitación (mm) Presión (hPa) Tendencia (hPa) Humedad (%)
2021-03-01 23:00:00 9.5 11 Este 19 Este 0 -- -- 80
2021-03-01 22:00:00 9.3 10 Este 16 Este 0 -- -- 84
2021-03-01 21:00:00 10 8 Este 21 Este 0 -- -- 82
2021-03-01 20:00:00 10.2 13 Este 22 Este 0 -- -- 83
2021-03-01 19:00:00 10.4 8 Este 22 Este 0 -- -- 79
2021-03-01 18:00:00 11.1 10 Este 23 Este 0 -- -- 72
2021-03-01 17:00:00 11.2 13 Este 32 Este 0 -- -- 68
2021-03-01 16:00:00 11.1 13 Este 33 Este 0 -- -- 71
2021-03-01 15:00:00 10.9 15 Este 30 Este 0 -- -- 75
2021-03-01 14:00:00 10.6 10 Este 21 Nordeste 0 -- -- 77
2021-03-01 13:00:00 10.1 12 Este 30 Nordeste 0 -- -- 81
2021-03-01 12:00:00 10.3 17 Este 27 Este 0 -- -- 75
2021-03-01 11:00:00 10.5 18 Este 29 Este 0 -- -- 75
2021-03-01 10:00:00 9.7 13 Este 26 Este 0 -- -- 82
2021-03-01 09:00:00 9 6 Nordeste 10 Nordeste 0 -- -- 87
2021-03-01 08:00:00 8.9 5 Nordeste 16 Nordeste 0 -- -- 87
2021-03-01 07:00:00 8.8 10 Nordeste 17 Nordeste 0 -- -- 87
2021-03-01 06:00:00 8.9 14 Este 21 Nordeste 0 -- -- 86
2021-03-01 05:00:00 8.8 7 Este 22 Este 0 -- -- 88
2021-03-01 04:00:00 8.7 14 Nordeste 24 Este 0 -- -- 87
2021-03-01 03:00:00 8.9 13 Nordeste 20 Este 0 -- -- 87
2021-03-01 02:00:00 8.7 12 Este 27 Este 0 -- -- 86
2021-03-01 01:00:00 8.9 10 Este 19 Este 0 -- -- 89
2021-03-01 00:00:00 8.7 14 Este 26 Este 0 -- -- 90
2021-02-28 23:00:00 8.3 12 Este 21 Nordeste 0 -- -- 92
2021-02-28 22:00:00 8 12 Este 22 Este 0 -- -- 94
2021-02-28 21:00:00 8.2 14 Este 22 Este 0 -- -- 91
2021-02-28 20:00:00 8.5 12 Este 22 Este 0 -- -- 88
2021-02-28 19:00:00 9.3 9 Este 24 Sudeste 0 -- -- 82
2021-02-28 18:00:00 10.9 8 Este 30 Este 0 -- -- 73
2021-02-28 17:00:00 12 14 Este 33 Este 0 -- -- 68
2021-02-28 16:00:00 11.6 14 Este 34 Este 0 -- -- 69
2021-02-28 15:00:00 11.8 16 Este 44 Este 0 -- -- 75
2021-02-28 14:00:00 12.2 16 Este 33 Sudeste 0 -- -- 73
2021-02-28 13:00:00 12.9 12 Este 29 Este 0 -- -- 70
2021-02-28 12:00:00 11 10 Este 29 Este 0 -- -- 82
2021-02-28 11:00:00 11 12 Este 30 Este 0 -- -- 81
2021-02-28 10:00:00 8.1 6 Este 13 Este 0 -- -- 85
2021-02-28 09:00:00 7.3 3 Nordeste 6 Nordeste 0 -- -- 80
2021-02-28 08:00:00 7 3 Este 5 Este 0 -- -- 80
2021-02-28 07:00:00 7.2 0 Calma 5 Sudoeste 0 -- -- 77
2021-02-28 06:00:00 7.2 2 Sur 14 Sudoeste 0 -- -- 78
2021-02-28 05:00:00 7.5 8 Sudoeste 13 Sudoeste 0 -- -- 78
2021-02-28 04:00:00 8 4 Oeste 11 Oeste 0 -- -- 77
2021-02-28 03:00:00 8.5 7 Oeste 10 Sudoeste 0 -- -- 75
2021-02-28 02:00:00 9.4 4 Sudoeste 10 Sudeste 0 -- -- 83
2021-02-28 01:00:00 10 7 Sudeste 17 Sudeste 0 -- -- 79
2021-02-28 00:00:00 10.4 6 Este 20 Sudeste 0 -- -- 78
2021-02-27 23:00:00 10.1 10 Sudeste 18 Sudeste 0 -- -- 80
2021-02-27 22:00:00 9.5 5 Este 13 Este 0 -- -- 81
2021-02-27 21:00:00 9.9 7 Este 11 Este 0 -- -- 80
2021-02-27 20:00:00 11.7 3 Nordeste 5 Nordeste 0 -- -- 71
2021-02-27 19:00:00 13 2 Noroeste 9 Oeste 0 -- -- 65
2021-02-27 18:00:00 14.4 7 Oeste 22 Oeste 0 -- -- 62
2021-02-27 17:00:00 15.1 12 Oeste 23 Oeste 0 -- -- 59
2021-02-27 16:00:00 15.2 14 Oeste 26 Oeste 0 -- -- 59
2021-02-27 15:00:00 14.4 18 Oeste 31 Sudoeste 0 -- -- 61
2021-02-27 14:00:00 13.1 15 Oeste 25 Oeste 0 -- -- 66
2021-02-27 13:00:00 12.8 17 Oeste 31 Sudoeste 0 -- -- 68
2021-02-27 12:00:00 11.3 16 Oeste 34 Sudoeste 0 -- -- 76
2021-02-27 11:00:00 10.2 16 Sudoeste 30 Sudoeste 0 -- -- 82
2021-02-27 10:00:00 8.8 16 Oeste 26 Sudoeste 0 -- -- 90
2021-02-27 09:00:00 7.2 10 Oeste 18 Sudoeste 0 -- -- 97
2021-02-27 08:00:00 6.4 9 Oeste 13 Sudoeste 0 -- -- 97
2021-02-27 07:00:00 6.6 9 Sudoeste 14 Sudoeste 0 -- -- 99
2021-02-27 06:00:00 6.3 11 Sudoeste 16 Sudoeste 0 -- -- 99
2021-02-27 05:00:00 6.5 7 Oeste 9 Oeste 0 -- -- 98
2021-02-27 04:00:00 7.3 3 Oeste 4 Oeste 0 -- -- 97
2021-02-27 03:00:00 7.8 0 Calma 3 Oeste 0 -- -- 95
2021-02-27 02:00:00 8.4 3 Oeste 6 Sudoeste 0 -- -- 95
2021-02-27 01:00:00 8.7 3 Sudoeste 6 Sudoeste 0 -- -- 93
2021-02-27 00:00:00 9.1 4 Sudoeste 8 Sur 0 -- -- 92
2021-02-26 23:00:00 9.1 4 Sudoeste 6 Sudeste 0 -- -- 95
2021-02-26 22:00:00 8.8 4 Sudeste 5 Sudeste 0 -- -- 94
2021-02-26 21:00:00 9.4 3 Sudoeste 5 Sudoeste 0 -- -- 93
2021-02-26 20:00:00 9.5 2 Este 3 Sudoeste 0 -- -- 92
2021-02-26 19:00:00 10.2 0 Calma 2 Sudoeste 0 -- -- 87
2021-02-26 18:00:00 11.4 0 Calma 5 Noroeste 0 -- -- 84
2021-02-26 17:00:00 11.6 2 Noroeste 10 Oeste 0 -- -- 83
2021-02-26 16:00:00 10.9 4 Oeste 13 Oeste 0 -- -- 87
2021-02-26 15:00:00 11 5 Oeste 11 Noroeste 0 -- -- 88
2021-02-26 14:00:00 10.8 4 Noroeste 11 Oeste 0 -- -- 90
2021-02-26 13:00:00 9.8 3 Noroeste 8 Noroeste 0 -- -- 97
2021-02-26 12:00:00 9.4 4 Noroeste 10 Oeste 0 -- -- 100
2021-02-26 11:00:00 9 5 Oeste 10 Oeste 0 -- -- 100
2021-02-26 10:00:00 8.5 4 Oeste 9 Sudoeste 0 -- -- 100
2021-02-26 09:00:00 7.9 5 Sudoeste 9 Sudoeste 0 -- -- 100
2021-02-26 08:00:00 7.6 6 Sudoeste 10 Sudoeste 0 -- -- 100
2021-02-26 07:00:00 7.6 5 Oeste 10 Sudoeste 0 -- -- 100
2021-02-26 06:00:00 8 4 Oeste 7 Sudoeste 0 -- -- 100
2021-02-26 05:00:00 8.2 3 Sudoeste 7 Nordeste 0 -- -- 99
2021-02-26 04:00:00 8 5 Este 9 Sudeste 0 -- -- 100
2021-02-26 03:00:00 7.5 6 Sudeste 12 Sudeste 0 -- -- 98
2021-02-26 02:00:00 8.1 6 Este 10 Este 0 -- -- 98
2021-02-26 01:00:00 8.7 6 Nordeste 8 Nordeste 0 -- -- 97
2021-02-26 00:00:00 9 5 Este 12 Sudeste 0 -- -- 96
2021-02-25 23:00:00 9.2 8 Este 13 Este 0 -- -- 95
2021-02-25 22:00:00 9.5 9 Este 15 Nordeste 0 -- -- 95
2021-02-25 21:00:00 9.9 9 Este 17 Este 0 -- -- 94
2021-02-25 20:00:00 10.4 8 Este 14 Este 0 -- -- 92
2021-02-25 19:00:00 11.1 6 Este 17 Nordeste 0 -- -- 88
2021-02-25 18:00:00 12.7 8 Este 24 Este 0 -- -- 81
2021-02-25 17:00:00 13.7 10 Este 28 Este 0 -- -- 78
2021-02-25 16:00:00 14.3 17 Este 30 Este 0 -- -- 74
2021-02-25 15:00:00 15.1 17 Este 33 Este 0 -- -- 69
2021-02-25 14:00:00 15.5 10 Este 32 Este 0 -- -- 65
2021-02-25 13:00:00 15.1 12 Este 24 Este 0 -- -- 65
2021-02-25 12:00:00 13.6 11 Este 27 Nordeste 0 -- -- 71
2021-02-25 11:00:00 11.9 12 Este 24 Sudeste 0 -- -- 82
2021-02-25 10:00:00 10.4 4 Este 17 Sudeste 0 -- -- 90
2021-02-25 09:00:00 8.9 3 Este 7 Este 0 -- -- 95
2021-02-25 08:00:00 8.3 4 Sudeste 13 Sudeste 0 -- -- 94
2021-02-25 07:00:00 8.6 6 Este 20 Este 0 -- -- 94
2021-02-25 06:00:00 8.7 8 Este 14 Este 0 -- -- 93
2021-02-25 05:00:00 8.9 8 Este 19 Este 0 -- -- 93
2021-02-25 04:00:00 9 8 Este 21 Este 0 -- -- 93
2021-02-25 03:00:00 9 9 Este 22 Este 0 -- -- 93
2021-02-25 02:00:00 9.1 9 Este 23 Nordeste 0 -- -- 92
2021-02-25 01:00:00 9.3 12 Este 23 Este 0 -- -- 90
2021-02-25 00:00:00 9.1 13 Este 23 Este 0 -- -- 89
2021-02-24 23:00:00 9.1 11 Este 22 Este 0 -- -- 86
2021-02-24 22:00:00 9.3 11 Este 28 Este 0 -- -- 87
2021-02-24 21:00:00 9.5 14 Este 25 Sudeste 0 -- -- 88
2021-02-24 20:00:00 9.6 10 Este 26 Este 0 -- -- 89
2021-02-24 19:00:00 11 9 Este 25 Este 0 -- -- 83
2021-02-24 18:00:00 13.1 12 Este 30 Sudeste 0 -- -- 73
2021-02-24 17:00:00 14.3 13 Este 32 Este 0 -- -- 71
2021-02-24 16:00:00 14.8 14 Este 36 Nordeste 0 -- -- 70
2021-02-24 15:00:00 14.5 15 Nordeste 30 Este 0 -- -- 72
2021-02-24 14:00:00 13.9 14 Este 34 Nordeste 0 -- -- 73
2021-02-24 13:00:00 13.3 15 Este 33 Este 0 -- -- 76
2021-02-24 12:00:00 12.2 13 Este 39 Este 0 -- -- 83
2021-02-24 11:00:00 12.1 19 Este 40 Este 0 -- -- 81
2021-02-24 10:00:00 11.6 12 Este 26 Este 0 -- -- 85
2021-02-24 09:00:00 10.9 9 Este 20 Este 0 -- -- 89
2021-02-24 08:00:00 10.4 9 Este 17 Este 0 -- -- 91
2021-02-24 07:00:00 10.9 5 Este 22 Este 0 -- -- 90
2021-02-24 06:00:00 10.7 9 Este 17 Este 0 -- -- 91
2021-02-24 05:00:00 10.6 9 Este 14 Nordeste 0 -- -- 91
2021-02-24 04:00:00 10.9 3 Nordeste 9 Este 0 -- -- 91
2021-02-24 03:00:00 10.9 5 Este 18 Este 0 -- -- 92
2021-02-24 02:00:00 10.6 10 Este 19 Este 0 -- -- 90
2021-02-24 01:00:00 10.8 9 Este 20 Este 0 -- -- 89
2021-02-24 00:00:00 10.8 9 Este 25 Sudeste 0 -- -- 88
2021-02-23 23:00:00 10.4 7 Este 23 Sudeste 0 -- -- 88
2021-02-23 22:00:00 10.9 8 Este 23 Sudeste 0 -- -- 87
2021-02-23 21:00:00 11.1 6 Este 14 Sudeste 0 -- -- 87
2021-02-23 20:00:00 11.6 4 Este 14 Este 0 -- -- 82
2021-02-23 19:00:00 12.7 7 Este 13 Este 0 -- -- 78
2021-02-23 18:00:00 14.1 10 Este 19 Este 0 -- -- 70
2021-02-23 17:00:00 15.3 6 Nordeste 17 Este 0 -- -- 67
2021-02-23 16:00:00 15 4 Norte 13 Norte 0 -- -- 68
2021-02-23 15:00:00 14.5 6 Norte 17 Este 0 -- -- 68
2021-02-23 14:00:00 13.6 5 Nordeste 10 Nordeste 0 -- -- 71
2021-02-23 13:00:00 12.2 3 Norte 9 Nordeste 0 -- -- 76
2021-02-23 12:00:00 10.7 3 Nordeste 6 Nordeste 0 -- -- 79
2021-02-23 11:00:00 9.5 3 Nordeste 7 Nordeste 0 -- -- 86
2021-02-23 10:00:00 8.1 0 Calma 8 Sur 0 -- -- 92
2021-02-23 09:00:00 6.9 4 Sur 6 Sur 0 -- -- 91
2021-02-23 08:00:00 6.6 5 Sudoeste 7 Oeste 0 -- -- 91
2021-02-23 07:00:00 6.5 5 Oeste 8 Oeste 0 -- -- 93
2021-02-23 06:00:00 6.4 0 Calma 7 Oeste 0 -- -- 94
2021-02-23 05:00:00 7 3 Oeste 10 Sudoeste 0 -- -- 92
2021-02-23 04:00:00 6.6 6 Oeste 9 Oeste 0 -- -- 93
2021-02-23 03:00:00 6.5 3 Sudoeste 8 Sudoeste 0 -- -- 92
2021-02-23 02:00:00 6.4 3 Sudoeste 6 Sudoeste 0 -- -- 93
2021-02-23 01:00:00 6.5 2 Oeste 9 Sudoeste 0 -- -- 91
2021-02-23 00:00:00 6.6 5 Sudoeste 8 Sudoeste 0 -- -- 91
2021-02-22 23:00:00 6.4 4 Oeste 10 Sudoeste 0 -- -- 92
2021-02-22 22:00:00 6.4 8 Sudoeste 12 Sudoeste 0 -- -- 92
2021-02-22 21:00:00 6.7 8 Oeste 16 Oeste 0 -- -- 89
2021-02-22 20:00:00 7.6 10 Oeste 15 Oeste 0 -- -- 86
2021-02-22 19:00:00 8 10 Oeste 17 Oeste 0 -- -- 86
2021-02-22 18:00:00 8.3 9 Oeste 18 Oeste 0 -- -- 84
2021-02-22 17:00:00 9.4 12 Oeste 21 Sudoeste 0 -- -- 81
2021-02-22 16:00:00 8.6 10 Oeste 18 Sudoeste 0 -- -- 85
2021-02-22 15:00:00 8.2 10 Oeste 19 Oeste 0 -- -- 87
2021-02-22 14:00:00 7.8 9 Oeste 17 Oeste 0 -- -- 88
2021-02-22 13:00:00 7.2 12 Oeste 18 Oeste 0 -- -- 91
2021-02-22 12:00:00 7.3 10 Oeste 19 Oeste 0 -- -- 94
2021-02-22 11:00:00 7 11 Oeste 24 Oeste 0.4 -- -- 94
2021-02-22 10:00:00 8.2 12 Oeste 35 Oeste 7.6 -- -- 93
2021-02-22 09:00:00 10.8 8 Sudeste 20 Este 1.8 -- -- 95
2021-02-22 08:00:00 11.1 11 Este 30 Este 0 -- -- 91
2021-02-22 07:00:00 11.1 19 Este 40 Este 0 -- -- 90
2021-02-22 06:00:00 11.4 15 Este 31 Este 0 -- -- 92
2021-02-22 05:00:00 11.6 13 Este 30 Este 0 -- -- 90
2021-02-22 04:00:00 12.4 19 Este 42 Sudeste 0 -- -- 82
2021-02-22 03:00:00 12.2 8 Este 52 Este 0 -- -- 84
2021-02-22 02:00:00 12 33 Este 67 Este 0 -- -- 86
2021-02-22 01:00:00 11.9 17 Este 42 Este 0 -- -- 85
2021-02-22 00:00:00 12 24 Este 54 Este 0 -- -- 84
2021-02-21 23:00:00 11.9 22 Este 44 Este 0 -- -- 83
2021-02-21 22:00:00 12.1 22 Este 44 Nordeste 0 -- -- 80
2021-02-21 21:00:00 12 24 Este 52 Nordeste 0 -- -- 80
2021-02-21 20:00:00 12 29 Este 59 Este 0 -- -- 80
2021-02-21 19:00:00 11.8 23 Este 45 Nordeste 0 -- -- 80
2021-02-21 18:00:00 12.4 29 Este 49 Este 0 -- -- 78
2021-02-21 17:00:00 12.3 27 Este 60 Este 0 -- -- 78
2021-02-21 16:00:00 12.7 31 Este 56 Este 0 -- -- 76
2021-02-21 15:00:00 12.2 22 Este 51 Este 0 -- -- 79
2021-02-21 14:00:00 12.1 20 Este 50 Este 0 -- -- 79
2021-02-21 13:00:00 11.8 21 Este 56 Este 0 -- -- 79
2021-02-21 12:00:00 11.8 27 Este 60 Este 0 -- -- 78
2021-02-21 11:00:00 11.4 24 Este 49 Este 0 -- -- 80
2021-02-21 10:00:00 10.6 22 Este 51 Sudeste 0 -- -- 83
2021-02-21 09:00:00 9.7 17 Este 39 Este 0 -- -- 86
2021-02-21 08:00:00 8.7 14 Este 32 Nordeste 0 -- -- 89
2021-02-21 07:00:00 8.5 19 Este 38 Este 0 -- -- 90
2021-02-21 06:00:00 8.5 17 Este 32 Nordeste 0 -- -- 89
2021-02-21 05:00:00 8.6 15 Este 37 Este 0 -- -- 91
2021-02-21 04:00:00 8.9 17 Este 32 Este 0 -- -- 89
2021-02-21 03:00:00 9 16 Este 36 Este 0 -- -- 88
2021-02-21 02:00:00 8.2 16 Este 28 Este 0 -- -- 89
2021-02-21 01:00:00 8.5 18 Este 37 Este 0 -- -- 89
2021-02-21 00:00:00 8.4 16 Este 32 Este 0 -- -- 89
2021-02-20 23:00:00 8.6 15 Este 37 Este 0 -- -- 87
2021-02-20 22:00:00 8.6 13 Este 39 Este 0 -- -- 86
2021-02-20 21:00:00 8.7 14 Este 41 Sudeste 0 -- -- 86
2021-02-20 20:00:00 9.1 16 Este 35 Este 0 -- -- 84
2021-02-20 19:00:00 9.5 15 Este 37 Sudeste 0 -- -- 82
2021-02-20 18:00:00 10.6 15 Este 41 Sudeste 0 -- -- 78
2021-02-20 17:00:00 12.1 17 Este 42 Sudeste 0 -- -- 73
2021-02-20 16:00:00 12.8 21 Este 49 Este 0 -- -- 71
2021-02-20 15:00:00 13.2 20 Este 49 Este 0 -- -- 71
2021-02-20 14:00:00 12.7 23 Este 46 Este 0 -- -- 71
2021-02-20 13:00:00 12.7 18 Este 40 Este 0 -- -- 73
2021-02-20 12:00:00 11.4 18 Este 42 Sudeste 0 -- -- 78
2021-02-20 11:00:00 10.1 20 Este 41 Este 0 -- -- 84
2021-02-20 10:00:00 9.4 18 Este 33 Este 0 -- -- 88
2021-02-20 09:00:00 7.9 15 Este 35 Este 0 -- -- 94
2021-02-20 08:00:00 7.1 13 Este 29 Este 0 -- -- 95
2021-02-20 07:00:00 6.8 13 Este 23 Este 0 -- -- 96
2021-02-20 06:00:00 6.5 13 Este 20 Este 0 -- -- 96
2021-02-20 05:00:00 6.6 9 Este 18 Este 0 -- -- 95
2021-02-20 04:00:00 6.6 11 Este 21 Este 0 -- -- 95
2021-02-20 03:00:00 6.5 12 Este 19 Este 0 -- -- 96
2021-02-20 02:00:00 6.7 10 Este 17 Este 0 -- -- 95
2021-02-20 01:00:00 6.9 10 Este 15 Este 0 -- -- 94
2021-02-20 00:00:00 7.4 6 Este 14 Este 0 -- -- 92
2021-02-19 23:00:00 8.1 8 Este 19 Este 0 -- -- 90
2021-02-19 22:00:00 9.3 11 Este 19 Este 0 -- -- 83
2021-02-19 21:00:00 10 9 Este 23 Este 0 -- -- 78
2021-02-19 20:00:00 10.8 9 Este 24 Este 0 -- -- 74
2021-02-19 19:00:00 11.7 9 Este 31 Este 0 -- -- 68
2021-02-19 18:00:00 13.7 13 Sudeste 26 Sudeste 0 -- -- 58
2021-02-19 17:00:00 15.5 12 Este 32 Este 0 -- -- 48
2021-02-19 16:00:00 17 10 Sudeste 35 Sudeste 0 -- -- 42
2021-02-19 15:00:00 17.6 12 Este 27 Este 0 -- -- 41
2021-02-19 14:00:00 16.1 13 Este 22 Este 0 -- -- 51
2021-02-19 13:00:00 14.2 6 Nordeste 11 Este 0 -- -- 68
2021-02-19 12:00:00 12.6 6 Nordeste 9 Este 0 -- -- 73
2021-02-19 11:00:00 10.5 4 Nordeste 6 Nordeste 0 -- -- 75
2021-02-19 10:00:00 10.2 3 Este 6 Sur 0 -- -- 75
2021-02-19 09:00:00 8.3 5 Este 9 Nordeste 0 -- -- 65
2021-02-19 08:00:00 8.9 3 Este 6 Nordeste 0 -- -- 58
2021-02-19 07:00:00 8.3 2 Sudeste 7 Sudoeste 0 -- -- 66
2021-02-19 06:00:00 8.5 3 Sudeste 5 Sur 0 -- -- 65
2021-02-19 05:00:00 7.8 3 Norte 5 Nordeste 0 -- -- 79
2021-02-19 04:00:00 7.6 3 Este 5 Nordeste 0 -- -- 80
2021-02-19 03:00:00 8.4 3 Sudeste 6 Sudeste 0 -- -- 71
2021-02-19 02:00:00 8.2 4 Este 12 Sudeste 0 -- -- 82
2021-02-19 01:00:00 7.3 5 Este 9 Sudeste 0 -- -- 90
2021-02-19 00:00:00 7.5 5 Este 14 Sudeste 0 -- -- 93
2021-02-18 23:00:00 8.2 9 Sudeste 19 Sudeste 0 -- -- 90
2021-02-18 22:00:00 8.6 10 Sudeste 17 Sudeste 0 -- -- 89
2021-02-18 21:00:00 8.7 5 Este 19 Sudeste 0 -- -- 88
2021-02-18 20:00:00 9.8 4 Este 15 Sudeste 0 -- -- 83
2021-02-18 19:00:00 11.2 8 Sudeste 15 Este 0 -- -- 79
2021-02-18 18:00:00 13.2 9 Sudeste 17 Sudeste 0 -- -- 73
2021-02-18 17:00:00 14.6 9 Sudeste 19 Sudeste 0 -- -- 68
2021-02-18 16:00:00 15.9 5 Este 18 Este 0 -- -- 61
2021-02-18 15:00:00 14.6 8 Este 16 Este 0 -- -- 69
2021-02-18 14:00:00 13.4 7 Este 21 Este 0 -- -- 75
2021-02-18 13:00:00 12.7 6 Este 17 Este 0 -- -- 81
2021-02-18 12:00:00 11.1 9 Este 21 Este 0 -- -- 100
2021-02-18 11:00:00 9 4 Nordeste 18 Este 0 -- -- 100
2021-02-18 10:00:00 7.5 9 Este 16 Este 0 -- -- 100
2021-02-18 09:00:00 6.3 5 Nordeste 10 Este 0 -- -- 100
2021-02-18 08:00:00 5.5 4 Este 10 Este 0 -- -- 100
2021-02-18 07:00:00 5.5 5 Nordeste 9 Este 0 -- -- 100
2021-02-18 06:00:00 4.9 5 Este 14 Este 0 -- -- 99
2021-02-18 05:00:00 5.1 8 Este 11 Nordeste 0 -- -- 99
2021-02-18 04:00:00 5.8 8 Este 12 Este 0 -- -- 98
2021-02-18 03:00:00 6.4 7 Este 15 Sudeste 0 -- -- 95
2021-02-18 02:00:00 7.4 8 Este 10 Este 0 -- -- 96
2021-02-18 01:00:00 8.1 4 Nordeste 12 Este 0 -- -- 94
2021-02-18 00:00:00 9 9 Este 16 Sudeste 0 -- -- 89
2021-02-17 23:00:00 10.1 7 Este 15 Este 0 -- -- 84
2021-02-17 22:00:00 10.6 6 Este 13 Sudeste 0 -- -- 82
2021-02-17 21:00:00 11.6 9 Este 21 Este 0 -- -- 77
2021-02-17 20:00:00 11.9 9 Este 19 Este 0 -- -- 74
2021-02-17 19:00:00 12.7 7 Este 18 Este 0 -- -- 76
2021-02-17 18:00:00 14.4 8 Este 23 Sudeste 0 -- -- 70
2021-02-17 17:00:00 17 7 Sudeste 18 Este 0 -- -- 55
2021-02-17 16:00:00 17.6 6 Este 16 Este 0 -- -- 54
2021-02-17 15:00:00 17.8 7 Nordeste 12 Nordeste 0 -- -- 57
2021-02-17 14:00:00 16.4 4 Nordeste 9 Nordeste 0 -- -- 57
2021-02-17 13:00:00 15.3 5 Nordeste 9 Nordeste 0 -- -- 64
2021-02-17 12:00:00 13.4 4 Nordeste 8 Nordeste 0 -- -- 74
2021-02-17 11:00:00 11.3 0 Calma 8 Sudeste 0 -- -- 84
2021-02-17 10:00:00 9.7 8 Sudeste 12 Sudeste 0 -- -- 87
2021-02-17 09:00:00 8 4 Nordeste 8 Sudeste 0 -- -- 89
2021-02-17 08:00:00 8.8 3 Sudeste 8 Sudeste 0 -- -- 82
2021-02-17 07:00:00 8.6 5 Nordeste 6 Nordeste 0 -- -- 86
2021-02-17 06:00:00 10.9 3 Oeste 7 Sudoeste 0 -- -- 72
2021-02-17 05:00:00 10.7 3 Sudoeste 6 Sudoeste 0 -- -- 79
2021-02-17 04:00:00 10.3 4 Sur 10 Sudeste 0 -- -- 82
2021-02-17 03:00:00 9.2 9 Sur 12 Sur 0 -- -- 87
2021-02-17 02:00:00 8.7 6 Sur 8 Sur 0 -- -- 90
2021-02-17 01:00:00 8.9 3 Noroeste 9 Sudoeste 0 -- -- 87
2021-02-17 00:00:00 9 8 Sur 16 Sur 0 -- -- 88
2021-02-16 23:00:00 8.9 14 Sudeste 16 Sudeste 0 -- -- 87
2021-02-16 22:00:00 9.3 2 Nordeste 9 Sudeste 0 -- -- 86
2021-02-16 21:00:00 9.9 4 Este 11 Sudeste 0 -- -- 84
2021-02-16 20:00:00 10.6 5 Este 12 Sudeste 0 -- -- 83
2021-02-16 19:00:00 12 4 Este 11 Sudeste 0 -- -- 77
2021-02-16 18:00:00 14.4 4 Este 11 Este 0 -- -- 69
2021-02-16 17:00:00 15.7 5 Nordeste 13 Nordeste 0 -- -- 62
2021-02-16 16:00:00 16.1 5 Nordeste 9 Este 0 -- -- 63
2021-02-16 15:00:00 15.4 2 Nordeste 13 Nordeste 0 -- -- 64
2021-02-16 14:00:00 13.9 3 Nordeste 10 Sudoeste 0 -- -- 73
2021-02-16 13:00:00 12 5 Sudoeste 10 Oeste 0 -- -- 79
2021-02-16 12:00:00 9.3 6 Oeste 11 Oeste 0 -- -- 92
2021-02-16 11:00:00 7.4 6 Noroeste 10 Oeste 0 -- -- 98
2021-02-16 10:00:00 6.7 4 Oeste 6 Oeste 0 -- -- 99
2021-02-16 09:00:00 5.8 2 Noroeste 5 Oeste 0 -- -- 98
2021-02-16 08:00:00 5.6 0 Calma 4 Oeste 0 -- -- 96
2021-02-16 07:00:00 7.7 2 Oeste 4 Sur 0 -- -- 94
2021-02-16 06:00:00 8.3 0 Calma 8 Sudeste 0 -- -- 94
2021-02-16 05:00:00 8.7 3 Este 6 Nordeste 0 -- -- 95
2021-02-16 04:00:00 8.6 2 Este 9 Este 0 -- -- 95
2021-02-16 03:00:00 8.2 4 Este 11 Este 0 -- -- 96
2021-02-16 02:00:00 8.4 6 Sudeste 18 Sudeste 0 -- -- 94
2021-02-16 01:00:00 8.7 7 Este 22 Este 0 -- -- 93
2021-02-16 00:00:00 8.6 8 Este 20 Este 0 -- -- 93
2021-02-15 23:00:00 8.9 9 Este 22 Sudeste 0 -- -- 92
2021-02-15 22:00:00 9.3 11 Este 21 Este 0 -- -- 93
2021-02-15 21:00:00 8.9 11 Este 24 Este 0 -- -- 94
2021-02-15 20:00:00 8.6 12 Este 24 Este 0 -- -- 94
2021-02-15 19:00:00 8.4 11 Este 28 Este 0 -- -- 92
2021-02-15 18:00:00 9.1 11 Este 32 Sudeste 0 -- -- 89
2021-02-15 17:00:00 10.2 16 Este 31 Sudeste 0 -- -- 84
2021-02-15 16:00:00 10.6 13 Este 31 Sudeste 0 -- -- 83
2021-02-15 15:00:00 11.1 13 Este 28 Este 0 -- -- 81
2021-02-15 14:00:00 10.6 15 Sudeste 35 Sudeste 0 -- -- 82
2021-02-15 13:00:00 10.4 14 Este 36 Sudeste 0 -- -- 84
2021-02-15 12:00:00 10.2 11 Este 28 Este 0 -- -- 84
2021-02-15 11:00:00 9.1 11 Este 27 Este 0 -- -- 88
2021-02-15 10:00:00 8.1 10 Este 20 Este 0 -- -- 92
2021-02-15 09:00:00 7.1 8 Este 22 Sudeste 0 -- -- 96
2021-02-15 08:00:00 6.8 9 Este 20 Este 0 -- -- 95
2021-02-15 07:00:00 6.6 9 Este 23 Este 0 -- -- 95
2021-02-15 06:00:00 6.6 9 Este 24 Este 0 -- -- 95
2021-02-15 05:00:00 6.6 9 Este 26 Este 0 -- -- 94
2021-02-15 04:00:00 6.7 11 Este 26 Nordeste 0 -- -- 93
2021-02-15 03:00:00 6.7 11 Este 23 Este 0 -- -- 93
2021-02-15 02:00:00 6.6 12 Este 24 Este 0 -- -- 93
2021-02-15 01:00:00 6.5 12 Este 29 Este 0 -- -- 92
2021-02-15 00:00:00 6.7 10 Este 27 Este 0 -- -- 90
2021-02-14 23:00:00 6.6 10 Este 33 Este 0 -- -- 89
2021-02-14 22:00:00 6.5 10 Este 31 Este 0 -- -- 91
2021-02-14 21:00:00 6.4 15 Este 36 Este 0 -- -- 90
2021-02-14 20:00:00 7 15 Este 32 Este 0 -- -- 89
2021-02-14 19:00:00 7.4 17 Este 34 Nordeste 0 -- -- 88
2021-02-14 18:00:00 8.3 18 Este 39 Nordeste 0 -- -- 86
2021-02-14 17:00:00 9.1 15 Este 37 Este 0 -- -- 82
2021-02-14 16:00:00 10 17 Este 36 Este 0 -- -- 82
2021-02-14 15:00:00 9.9 10 Este 25 Este 0 -- -- 85
2021-02-14 14:00:00 9 14 Este 31 Este 0 -- -- 88
2021-02-14 13:00:00 8.7 19 Este 33 Este 0 -- -- 89
2021-02-14 12:00:00 8.4 15 Este 29 Este 0 -- -- 91
2021-02-14 11:00:00 8 8 Este 18 Este 0 -- -- 93
2021-02-14 10:00:00 8 6 Este 22 Este 0 -- -- 94
2021-02-14 09:00:00 7.8 9 Este 24 Este 0 -- -- 92
2021-02-14 08:00:00 7.5 5 Este 13 Sudeste 0 -- -- 81
2021-02-14 07:00:00 6.6 7 Sur 15 Sudeste 0 -- -- 76
2021-02-14 06:00:00 7.6 9 Sur 15 Sudeste 0 -- -- 73
2021-02-14 05:00:00 7.2 9 Sudeste 11 Sudeste 0 -- -- 74
2021-02-14 04:00:00 8.1 7 Sudeste 10 Sudeste 0 -- -- 71
2021-02-14 03:00:00 8.7 4 Sudoeste 11 Sudoeste 0 -- -- 69
2021-02-14 02:00:00 8.7 6 Sudoeste 12 Sur 0 -- -- 70
2021-02-14 01:00:00 8.6 5 Sudoeste 15 Sudoeste 0 -- -- 71
2021-02-14 00:00:00 8.9 7 Sudoeste 20 Sudoeste 0 -- -- 72
2021-02-13 23:00:00 9.8 12 Sudoeste 19 Oeste 0 -- -- 70
2021-02-13 22:00:00 10 10 Oeste 24 Oeste 0 -- -- 68
2021-02-13 21:00:00 10.5 13 Oeste 32 Sudoeste 0 -- -- 67
2021-02-13 20:00:00 10.9 16 Oeste 23 Oeste 0 -- -- 66
2021-02-13 19:00:00 11.4 12 Oeste 25 Oeste 0 -- -- 65
2021-02-13 18:00:00 12.5 15 Oeste 35 Oeste 0 -- -- 59
2021-02-13 17:00:00 13.3 21 Oeste 40 Oeste 0 -- -- 55
2021-02-13 16:00:00 13.7 29 Oeste 44 Oeste 0 -- -- 54
2021-02-13 15:00:00 14 26 Oeste 46 Oeste 0 -- -- 55
2021-02-13 14:00:00 14.5 27 Oeste 40 Oeste 0 -- -- 50
2021-02-13 13:00:00 13.7 19 Oeste 38 Oeste 0 -- -- 57
2021-02-13 08:00:00 -- -- -- -- -- -- -- -- --
2021-02-13 07:00:00 8 15 Oeste 32 Sudoeste 0 -- -- 79
2021-02-13 06:00:00 8.2 17 Oeste 38 Oeste 0 -- -- 80
2021-02-13 05:00:00 8.6 25 Oeste 35 Oeste 0 -- -- 80
2021-02-13 04:00:00 8.9 21 Oeste 35 Oeste 0 -- -- 79
2021-02-13 03:00:00 9.3 27 Oeste 48 Oeste 0 -- -- 78
2021-02-13 02:00:00 9.7 25 Oeste 54 Oeste 0 -- -- 77
2021-02-13 01:00:00 10 33 Oeste 59 Oeste 0 -- -- 76
2021-02-13 00:00:00 10.1 25 Oeste 47 Sudoeste 0 -- -- 76
2021-02-12 23:00:00 10.6 26 Oeste 54 Oeste 0 -- -- 75
2021-02-12 22:00:00 11 27 Oeste 57 Oeste 0 -- -- 75
2021-02-12 21:00:00 11.3 33 Oeste 60 Oeste 0 -- -- 75
2021-02-12 20:00:00 11.6 33 Oeste 64 Oeste 0 -- -- 75
2021-02-12 19:00:00 11.7 30 Oeste 64 Oeste 0 -- -- 76
2021-02-12 18:00:00 11.8 32 Oeste 51 Oeste 0 -- -- 76
2021-02-12 17:00:00 11.4 30 Oeste 58 Oeste 0 -- -- 82
2021-02-12 16:00:00 11.9 23 Oeste 40 Oeste 0 -- -- 83
2021-02-12 15:00:00 11.8 22 Oeste 33 Oeste 0.2 -- -- 87
2021-02-12 14:00:00 11.6 18 Oeste 45 Oeste 0.4 -- -- 91
2021-02-12 13:00:00 13.2 22 Oeste 35 Oeste 0 -- -- 79
2021-02-12 12:00:00 10.9 14 Sudoeste 22 Sudoeste 0.2 -- -- 90
2021-02-12 11:00:00 10.6 10 Noroeste 18 Noroeste 0 -- -- 83
2021-02-12 10:00:00 12.4 3 Sudoeste 9 Sudeste 0 -- -- 76
2021-02-12 09:00:00 11.8 6 Sur 9 Sudeste 0 -- -- 73
2021-02-12 08:00:00 11.3 3 Sur 6 Este 0 -- -- 75
2021-02-12 07:00:00 11.7 2 Sudeste 14 Sudeste 0 -- -- 73
2021-02-12 06:00:00 11.4 7 Sur 15 Sur 0 -- -- 72
2021-02-12 05:00:00 12.2 0 Calma 4 Este 0 -- -- 68
2021-02-12 04:00:00 12.1 2 Este 5 Este 0 -- -- 68
2021-02-12 03:00:00 12.8 3 Sur 10 Sur 0 -- -- 65
2021-02-12 02:00:00 12.8 6 Sur 9 Sur 0 -- -- 66
2021-02-12 01:00:00 12.4 2 Sur 6 Sudoeste 0 -- -- 69
2021-02-12 00:00:00 13.3 4 Sudoeste 14 Sudoeste 0 -- -- 67
2021-02-11 23:00:00 13.7 8 Sudoeste 16 Sudoeste 0 -- -- 66
2021-02-11 22:00:00 13.6 9 Sudoeste 20 Sudoeste 0 -- -- 69
2021-02-11 21:00:00 14.1 8 Sudoeste 12 Sudoeste 0 -- -- 67
2021-02-11 20:00:00 14.3 3 Sudoeste 11 Sudoeste 0 -- -- 66
2021-02-11 19:00:00 14.9 5 Sudoeste 13 Oeste 0 -- -- 65
2021-02-11 18:00:00 16.4 10 Oeste 28 Oeste 0 -- -- 61
2021-02-11 17:00:00 17.3 17 Oeste 31 Oeste 0 -- -- 57
2021-02-11 16:00:00 17.3 19 Oeste 32 Oeste 0 -- -- 57
2021-02-11 15:00:00 16.5 20 Oeste 33 Oeste 0 -- -- 58
2021-02-11 14:00:00 15.5 21 Oeste 30 Oeste 0 -- -- 57
2021-02-11 13:00:00 14.1 15 Oeste 22 Oeste 0 -- -- 56
2021-02-11 12:00:00 13.4 13 Oeste 19 Oeste 0 -- -- 54
2021-02-11 11:00:00 11.4 12 Sudoeste 18 Sudoeste 0 -- -- 58
2021-02-11 10:00:00 9 5 Sudoeste 12 Oeste 0 -- -- 65
2021-02-11 09:00:00 6.7 7 Sudoeste 9 Sudoeste 0 -- -- 73
2021-02-11 08:00:00 6.7 5 Sudoeste 11 Sudoeste 0 -- -- 72
2021-02-11 07:00:00 6.9 3 Sudoeste 14 Sudoeste 0 -- -- 72
2021-02-11 06:00:00 7 7 Sudoeste 15 Sudoeste 0 -- -- 70
2021-02-11 05:00:00 7 9 Sudoeste 21 Sudoeste 0 -- -- 68
2021-02-11 04:00:00 7.3 12 Sudoeste 19 Sur 0 -- -- 67
2021-02-11 03:00:00 7.1 12 Sudoeste 17 Sudoeste 0 -- -- 68
2021-02-11 02:00:00 6.5 8 Sudoeste 15 Oeste 0 -- -- 72
2021-02-11 01:00:00 6.9 9 Oeste 17 Sudoeste 0 -- -- 71
2021-02-11 00:00:00 7.7 12 Sudoeste 19 Sur 0 -- -- 70
2021-02-10 23:00:00 8.1 10 Sudoeste 19 Sudoeste 0 -- -- 70
2021-02-10 22:00:00 8.1 12 Sudoeste 20 Sudoeste 0 -- -- 70
2021-02-10 21:00:00 9.1 13 Oeste 27 Oeste 0 -- -- 65
2021-02-10 20:00:00 9.7 19 Oeste 34 Oeste 0 -- -- 62
2021-02-10 19:00:00 10.5 20 Oeste 32 Oeste 0 -- -- 62
2021-02-10 18:00:00 12 20 Oeste 45 Oeste 0 -- -- 57
2021-02-10 17:00:00 12.5 31 Oeste 49 Oeste 0 -- -- 53
2021-02-10 16:00:00 12.8 32 Oeste 51 Oeste 0 -- -- 52
2021-02-10 15:00:00 12.4 30 Oeste 54 Oeste 0 -- -- 55
2021-02-10 14:00:00 11.4 36 Oeste 55 Oeste 0 -- -- 64
2021-02-10 13:00:00 10.5 43 Oeste 66 Oeste 0 -- -- 68
2021-02-10 12:00:00 8.5 30 Oeste 50 Oeste 0 -- -- 77
2021-02-10 11:00:00 8.4 28 Oeste 48 Oeste 0 -- -- 76
2021-02-10 10:00:00 7.7 20 Oeste 32 Sudoeste 0 -- -- 87
2021-02-10 09:00:00 6 10 Sudoeste 21 Sudoeste 0 -- -- 96
2021-02-10 08:00:00 6.3 12 Oeste 37 Oeste 5.8 -- -- 95
2021-02-10 07:00:00 7.5 9 Sudoeste 14 Sudoeste 0.8 -- -- 86
2021-02-10 06:00:00 6.9 6 Sudeste 9 Sudeste 0 -- -- 89
2021-02-10 05:00:00 7.5 3 Nordeste 14 Sudoeste 0 -- -- 86
2021-02-10 04:00:00 7.6 5 Sudoeste 16 Oeste 0 -- -- 85
2021-02-10 03:00:00 7.7 11 Sudoeste 24 Sudoeste 0.2 -- -- 86
2021-02-10 02:00:00 6.8 10 Sudoeste 18 Sudoeste 0 -- -- 91
2021-02-10 01:00:00 6.5 7 Sudoeste 14 Sudoeste 0 -- -- 89
2021-02-10 00:00:00 7.1 10 Oeste 15 Oeste 0.2 -- -- 89
2021-02-09 23:00:00 8.4 4 Noroeste 13 Sudoeste 0 -- -- 83
2021-02-09 22:00:00 8.6 8 Sudoeste 13 Oeste 0 -- -- 81
2021-02-09 21:00:00 9.3 9 Noroeste 30 Sudoeste 0 -- -- 80
2021-02-09 20:00:00 9.9 12 Sudoeste 23 Sudoeste 0 -- -- 81
2021-02-09 19:00:00 9.6 10 Sudoeste 22 Noroeste 1 -- -- 88
2021-02-09 18:00:00 10.1 10 Este 21 Sudeste 0.6 -- -- 85
2021-02-09 17:00:00 11.2 10 Sudeste 33 Sudeste 0.4 -- -- 75
2021-02-09 16:00:00 12.5 16 Sudeste 33 Sudeste 0 -- -- 62
2021-02-09 15:00:00 12 11 Sudeste 21 Este 0 -- -- 60
2021-02-09 14:00:00 11.2 8 Este 17 Sudeste 0 -- -- 62
2021-02-09 13:00:00 10.7 6 Este 17 Este 0 -- -- 64
2021-02-09 12:00:00 9.6 6 Este 12 Este 0 -- -- 80
2021-02-09 11:00:00 9.6 4 Sudeste 13 Sudeste 0 -- -- 76
2021-02-09 10:00:00 8.7 8 Sur 13 Sur 0 -- -- 75
2021-02-09 09:00:00 8.5 6 Sur 20 Sudoeste 0 -- -- 71
2021-02-09 08:00:00 8.4 11 Sudoeste 19 Sudoeste 0 -- -- 72
2021-02-09 07:00:00 8 10 Sudoeste 20 Sudoeste 0 -- -- 73
2021-02-09 06:00:00 7.2 8 Sudoeste 16 Sudoeste 0 -- -- 77
2021-02-09 05:00:00 6.8 13 Oeste 24 Oeste 0 -- -- 79
2021-02-09 04:00:00 7 18 Oeste 28 Oeste 0 -- -- 78
2021-02-09 03:00:00 7 14 Oeste 26 Oeste 0 -- -- 77
2021-02-09 02:00:00 7 11 Oeste 24 Oeste 0 -- -- 77
2021-02-09 01:00:00 7.8 15 Oeste 30 Oeste 0 -- -- 73
2021-02-09 00:00:00 8.6 20 Oeste 28 Oeste 0 -- -- 70
2021-02-08 23:00:00 8.9 22 Oeste 36 Oeste 0 -- -- 69
2021-02-08 22:00:00 9.2 19 Oeste 28 Oeste 0 -- -- 68
2021-02-08 21:00:00 9.1 14 Oeste 26 Oeste 0 -- -- 70
2021-02-08 20:00:00 9.9 14 Oeste 32 Oeste 0 -- -- 67
2021-02-08 19:00:00 10.1 14 Oeste 24 Sudoeste 0 -- -- 67
2021-02-08 18:00:00 11.2 18 Oeste 39 Oeste 0 -- -- 61
2021-02-08 17:00:00 11.8 23 Oeste 54 Oeste 0 -- -- 58
2021-02-08 16:00:00 13.1 27 Oeste 45 Oeste 0 -- -- 55
2021-02-08 15:00:00 12.2 17 Oeste 33 Oeste 0 -- -- 71
2021-02-08 14:00:00 11.1 14 Oeste 26 Oeste 0 -- -- 79
2021-02-08 13:00:00 8.3 10 Sudoeste 25 Sudoeste 0.4 -- -- 89
2021-02-08 12:00:00 8.1 14 Sudoeste 19 Sudoeste 1 -- -- 94
2021-02-08 11:00:00 7.7 8 Sur 14 Sur 1.8 -- -- 91
2021-02-08 10:00:00 7 8 Sudoeste 13 Sudoeste 0.4 -- -- 86
2021-02-08 09:00:00 7.5 7 Sudeste 13 Sur 0 -- -- 78
2021-02-08 08:00:00 6.6 9 Sudeste 12 Sur 0 -- -- 80
2021-02-08 07:00:00 6.6 6 Sudeste 9 Sudeste 0 -- -- 77
2021-02-08 06:00:00 6.5 8 Sudeste 13 Sur 0 -- -- 76
2021-02-08 05:00:00 6.5 4 Sur 8 Oeste 0 -- -- 73
2021-02-08 04:00:00 6.8 5 Oeste 12 Sudoeste 0 -- -- 71
2021-02-08 03:00:00 6.7 6 Oeste 13 Sudoeste 0 -- -- 70
2021-02-08 02:00:00 6.7 9 Sudoeste 14 Sudoeste 0 -- -- 70
2021-02-08 01:00:00 6.6 7 Sudoeste 12 Sudoeste 0 -- -- 70
2021-02-08 00:00:00 6.5 7 Oeste 13 Sudoeste 0 -- -- 70
2021-02-07 23:00:00 7.1 10 Sudoeste 19 Sudoeste 0 -- -- 66
2021-02-07 22:00:00 7.1 9 Oeste 15 Sudoeste 0 -- -- 65
2021-02-07 21:00:00 7.2 6 Oeste 17 Sudoeste 0 -- -- 65
2021-02-07 20:00:00 8 11 Sudoeste 16 Sudoeste 0 -- -- 61
2021-02-07 19:00:00 8.4 8 Sudoeste 24 Oeste 0 -- -- 58
2021-02-07 18:00:00 9.2 14 Oeste 39 Oeste 0 -- -- 54
2021-02-07 17:00:00 10.2 30 Oeste 51 Oeste 0 -- -- 51
2021-02-07 16:00:00 10.7 31 Oeste 46 Oeste 0 -- -- 53
2021-02-07 15:00:00 9.7 28 Oeste 50 Oeste 0 -- -- 55
2021-02-07 14:00:00 10 34 Oeste 54 Oeste 0 -- -- 53
2021-02-07 13:00:00 8.8 34 Oeste 58 Oeste 0 -- -- 57
2021-02-07 12:00:00 8.1 33 Oeste 54 Oeste 0 -- -- 60
2021-02-07 11:00:00 7.1 33 Oeste 65 Oeste 0.2 -- -- 64
2021-02-07 10:00:00 5.8 29 Oeste 45 Oeste 0 -- -- 68
2021-02-07 09:00:00 4.5 25 Oeste 40 Oeste 0 -- -- 72
2021-02-07 08:00:00 4.4 23 Oeste 41 Oeste 0 -- -- 74
2021-02-07 07:00:00 4.9 27 Oeste 44 Oeste 0 -- -- 74
2021-02-07 06:00:00 5.5 28 Oeste 41 Oeste 0 -- -- 76
2021-02-07 05:00:00 5.8 27 Oeste 45 Oeste 0 -- -- 77
2021-02-07 04:00:00 5.8 23 Oeste 42 Sudoeste 0 -- -- 81
2021-02-07 03:00:00 6.1 23 Oeste 39 Oeste 0 -- -- 82
2021-02-07 02:00:00 6.2 21 Oeste 45 Sudoeste 0 -- -- 83
2021-02-07 01:00:00 6.5 17 Oeste 35 Sudoeste 0 -- -- 82
2021-02-07 00:00:00 6.9 22 Oeste 39 Sudoeste 0 -- -- 83
2021-02-06 23:00:00 7.5 21 Oeste 35 Oeste 0 -- -- 86
2021-02-06 22:00:00 7.6 22 Oeste 36 Oeste 0 -- -- 89
2021-02-06 21:00:00 8.2 18 Oeste 30 Sudoeste 0 -- -- 93
2021-02-06 20:00:00 8.9 15 Oeste 27 Oeste 0 -- -- 96
2021-02-06 19:00:00 9.7 18 Oeste 39 Oeste 0.4 -- -- 94
2021-02-06 18:00:00 13.5 8 Sur 12 Sur 0 -- -- 67
2021-02-06 17:00:00 14.3 4 Sudeste 13 Sudeste 0 -- -- 60
2021-02-06 16:00:00 15.2 3 Nordeste 13 Oeste 0 -- -- 53
2021-02-06 15:00:00 15.1 8 Noroeste 13 Noroeste 0 -- -- 53
2021-02-06 14:00:00 15.1 6 Noroeste 12 Noroeste 0 -- -- 59
2021-02-06 13:00:00 14.8 5 Noroeste 11 Oeste 0 -- -- 61
2021-02-06 12:00:00 13.5 3 Oeste 12 Oeste 0 -- -- 70
2021-02-06 11:00:00 11.1 9 Oeste 18 Oeste 0 -- -- 79
2021-02-06 10:00:00 10.1 7 Oeste 14 Sudoeste 0 -- -- 81
2021-02-06 09:00:00 9.3 6 Sudoeste 13 Sur 0 -- -- 82
2021-02-06 08:00:00 8.5 8 Sur 10 Sudoeste 0 -- -- 88
2021-02-06 07:00:00 8.9 9 Sudoeste 15 Sudoeste 0 -- -- 88
2021-02-06 06:00:00 9.2 10 Oeste 19 Oeste 0 -- -- 87
2021-02-06 05:00:00 10.8 3 Sur 7 Sudeste 0 -- -- 79
2021-02-06 04:00:00 10.7 2 Sudoeste 10 Oeste 0 -- -- 80
2021-02-06 03:00:00 10.4 3 Este 16 Sudoeste 0 -- -- 83
2021-02-06 02:00:00 10.8 9 Oeste 13 Oeste 0 -- -- 80
2021-02-06 01:00:00 11.6 2 Noroeste 15 Nordeste 0 -- -- 76
2021-02-06 00:00:00 10.9 6 Este 17 Este 0 -- -- 81
2021-02-05 23:00:00 10.8 7 Este 27 Este 0 -- -- 82
2021-02-05 22:00:00 11.4 11 Este 26 Este 0 -- -- 79
2021-02-05 21:00:00 11.2 13 Este 36 Este 0 -- -- 80
2021-02-05 20:00:00 11.1 15 Este 35 Nordeste 0 -- -- 80
2021-02-05 19:00:00 11 13 Este 28 Este 0 -- -- 82
2021-02-05 18:00:00 11.4 12 Este 30 Este 0 -- -- 82
2021-02-05 17:00:00 12.1 18 Este 37 Este 0 -- -- 79
2021-02-05 16:00:00 12.6 16 Este 39 Este 0 -- -- 75
2021-02-05 15:00:00 12.9 16 Este 40 Este 0 -- -- 76
2021-02-05 14:00:00 12.6 19 Este 41 Sudeste 0 -- -- 78
2021-02-05 13:00:00 12.5 18 Este 40 Nordeste 0 -- -- 78
2021-02-05 12:00:00 11.8 19 Este 42 Este 0 -- -- 81
2021-02-05 11:00:00 11.4 19 Este 49 Este 0 -- -- 83
2021-02-05 10:00:00 10.3 15 Este 32 Este 0 -- -- 90
2021-02-05 09:00:00 9.7 22 Este 35 Este 0 -- -- 94
2021-02-05 08:00:00 9.2 15 Este 28 Este 0 -- -- 95
2021-02-05 07:00:00 9.1 14 Este 27 Este 0 -- -- 97
2021-02-05 06:00:00 8.8 6 Este 16 Nordeste 0 -- -- 97
2021-02-05 05:00:00 8.5 11 Este 21 Nordeste 0 -- -- 98
2021-02-05 04:00:00 8.8 0 Calma 10 Sudeste 0 -- -- 97
2021-02-05 03:00:00 9 4 Este 10 Sudeste 0 -- -- 96
2021-02-05 02:00:00 9.2 4 Sudeste 13 Sudeste 0 -- -- 95
2021-02-05 01:00:00 9.2 6 Este 10 Este 0 -- -- 93
2021-02-05 00:00:00 9.4 3 Este 14 Este 0 -- -- 93
2021-02-04 23:00:00 9.5 8 Este 17 Este 0 -- -- 93
2021-02-04 22:00:00 9.6 8 Este 23 Este 0 -- -- 93
2021-02-04 21:00:00 9.8 12 Este 28 Este 0 -- -- 92
2021-02-04 20:00:00 10 11 Este 32 Este 0 -- -- 91
2021-02-04 19:00:00 10.5 14 Este 32 Este 0 -- -- 89
2021-02-04 18:00:00 11.9 17 Este 37 Este 0 -- -- 83
2021-02-04 17:00:00 13.8 18 Este 39 Este 0 -- -- 74
2021-02-04 16:00:00 14.2 22 Este 35 Este 0 -- -- 71
2021-02-04 15:00:00 15.5 16 Este 35 Nordeste 0 -- -- 64
2021-02-04 14:00:00 14.3 14 Este 28 Este 0 -- -- 74
2021-02-04 13:00:00 14.6 14 Este 30 Este 0 -- -- 70
2021-02-04 12:00:00 14.7 15 Este 26 Este 0 -- -- 66
2021-02-04 11:00:00 14.5 9 Este 22 Este 0 -- -- 68
2021-02-04 10:00:00 11.5 5 Nordeste 11 Este 0 -- -- 78
2021-02-04 09:00:00 10.7 8 Este 15 Nordeste 0 -- -- 80
2021-02-04 08:00:00 10.4 7 Este 12 Este 0 -- -- 80
2021-02-04 07:00:00 10 7 Este 10 Este 0 -- -- 81
2021-02-04 06:00:00 10.2 5 Este 9 Nordeste 0 -- -- 79
2021-02-04 05:00:00 10.2 6 Este 10 Nordeste 0 -- -- 80
2021-02-04 04:00:00 10.7 7 Nordeste 10 Este 0 -- -- 78
2021-02-04 03:00:00 11.3 6 Nordeste 9 Nordeste 0 -- -- 76
2021-02-04 02:00:00 12 3 Nordeste 6 Este 0 -- -- 69
2021-02-04 01:00:00 12.2 4 Este 8 Este 0 -- -- 69
2021-02-04 00:00:00 12.5 6 Este 9 Este 0 -- -- 67
2021-02-03 23:00:00 13.3 4 Sudeste 10 Sudeste 0 -- -- 64
2021-02-03 22:00:00 14 5 Sudeste 9 Sudeste 0 -- -- 60
2021-02-03 21:00:00 13.3 5 Sudeste 9 Sudeste 0 -- -- 63
2021-02-03 20:00:00 13.4 9 Sudeste 10 Sudeste 0 -- -- 64
2021-02-03 19:00:00 13.5 8 Sudeste 10 Sudeste 0 -- -- 65
2021-02-03 18:00:00 14.4 4 Sudeste 8 Sudeste 0 -- -- 64
2021-02-03 17:00:00 15.4 0 Calma 6 Oeste 0 -- -- 58
2021-02-03 16:00:00 15.7 3 Norte 5 Norte 0 -- -- 54
2021-02-03 15:00:00 15.3 2 Sudoeste 14 Noroeste 0 -- -- 55
2021-02-03 14:00:00 14.6 10 Oeste 15 Oeste 0 -- -- 58
2021-02-03 13:00:00 13.8 5 Oeste 10 Oeste 0 -- -- 60
2021-02-03 12:00:00 13.2 6 Oeste 11 Oeste 0 -- -- 63
2021-02-03 11:00:00 10.3 4 Oeste 7 Sudoeste 0 -- -- 75
2021-02-03 10:00:00 8.9 2 Oeste 8 Oeste 0 -- -- 82
2021-02-03 09:00:00 8.4 2 Noroeste 9 Sur 0 -- -- 81
2021-02-03 08:00:00 8.1 6 Sur 10 Sur 0 -- -- 85
2021-02-03 07:00:00 8.9 3 Oeste 6 Oeste 0 -- -- 81
2021-02-03 06:00:00 9.7 3 Sudoeste 5 Oeste 0 -- -- 78
2021-02-03 05:00:00 9.8 4 Oeste 7 Oeste 0 -- -- 78
2021-02-03 04:00:00 10.7 2 Sudoeste 5 Sudoeste 0 -- -- 74
2021-02-03 03:00:00 11.6 4 Oeste 5 Sudoeste 0 -- -- 69
2021-02-03 02:00:00 11.8 0 Calma 3 Sudoeste 0 -- -- 68
2021-02-03 01:00:00 12 3 Oeste 8 Oeste 0 -- -- 69
2021-02-03 00:00:00 12.6 4 Oeste 8 Oeste 0 -- -- 66
2021-02-02 23:00:00 12.7 2 Oeste 8 Noroeste 0 -- -- 65
2021-02-02 22:00:00 13.6 7 Sur 10 Sudeste 0 -- -- 63
2021-02-02 21:00:00 14.4 8 Sur 12 Sudeste 0 -- -- 60
2021-02-02 20:00:00 15.2 7 Sur 12 Sur 0 -- -- 57
2021-02-02 19:00:00 15.7 4 Sur 14 Oeste 0 -- -- 56
2021-02-02 18:00:00 17.4 3 Noroeste 19 Oeste 0 -- -- 50
2021-02-02 17:00:00 18.3 15 Oeste 30 Oeste 0 -- -- 48
2021-02-02 16:00:00 18.7 18 Oeste 32 Oeste 0 -- -- 47
2021-02-02 15:00:00 18.3 20 Oeste 36 Oeste 0 -- -- 50
2021-02-02 14:00:00 17.9 22 Oeste 40 Oeste 0 -- -- 52
2021-02-02 13:00:00 17.1 28 Oeste 48 Oeste 0 -- -- 56
2021-02-02 12:00:00 16 27 Oeste 39 Oeste 0 -- -- 60
2021-02-02 11:00:00 14.7 21 Oeste 34 Oeste 0 -- -- 62
2021-02-02 10:00:00 12.6 11 Oeste 20 Sudoeste 0 -- -- 71
2021-02-02 09:00:00 11.4 13 Sudoeste 20 Sudoeste 0 -- -- 72
2021-02-02 08:00:00 10.8 4 Sudoeste 21 Sudoeste 0 -- -- 74
2021-02-02 07:00:00 10.9 8 Sudoeste 29 Sudoeste 0 -- -- 73
2021-02-02 06:00:00 10.7 15 Oeste 31 Oeste 0 -- -- 74
2021-02-02 05:00:00 11 19 Oeste 30 Oeste 0 -- -- 73
2021-02-02 04:00:00 10.9 17 Oeste 33 Oeste 0 -- -- 72
2021-02-02 03:00:00 11.2 22 Oeste 38 Oeste 0 -- -- 70
2021-02-02 02:00:00 11.7 28 Oeste 42 Oeste 0 -- -- 69
2021-02-02 01:00:00 11.8 27 Oeste 39 Oeste 0 -- -- 68
2021-02-02 00:00:00 11.9 28 Oeste 38 Oeste 0 -- -- 70
2021-02-01 23:00:00 11.2 17 Oeste 37 Oeste 0 -- -- 75
2021-02-01 22:00:00 12.7 27 Oeste 40 Oeste 0 -- -- 69
2021-02-01 21:00:00 13 26 Oeste 52 Oeste 0 -- -- 67
2021-02-01 20:00:00 13.9 33 Oeste 42 Oeste 0 -- -- 63
2021-02-01 19:00:00 14.7 23 Oeste 38 Oeste 0 -- -- 58
2021-02-01 18:00:00 15.1 23 Oeste 37 Noroeste 0 -- -- 55
2021-02-01 17:00:00 15.3 19 Oeste 43 Oeste 0 -- -- 54
2021-02-01 16:00:00 15.7 26 Oeste 49 Oeste 0 -- -- 50
2021-02-01 15:00:00 15.8 33 Oeste 54 Oeste 0 -- -- 46
2021-02-01 14:00:00 15.9 37 Oeste 61 Oeste 0 -- -- 45
2021-02-01 13:00:00 15.3 39 Oeste 64 Oeste 0 -- -- 48
2021-02-01 12:00:00 14.8 39 Oeste 59 Oeste 0 -- -- 50
2021-02-01 11:00:00 13.4 34 Oeste 56 Sudoeste 0 -- -- 55
2021-02-01 10:00:00 12.1 25 Oeste 46 Oeste 0 -- -- 59
2021-02-01 09:00:00 11.5 27 Oeste 46 Oeste 0 -- -- 61
2021-02-01 08:00:00 11.3 27 Oeste 45 Oeste 0 -- -- 61
2021-02-01 07:00:00 11.3 22 Oeste 45 Oeste 0 -- -- 63
2021-02-01 06:00:00 12.1 26 Oeste 40 Oeste 0 -- -- 62
2021-02-01 05:00:00 12.3 21 Oeste 32 Oeste 0 -- -- 63
2021-02-01 04:00:00 12.3 17 Oeste 30 Oeste 0 -- -- 63
2021-02-01 03:00:00 13.6 23 Oeste 54 Oeste 0 -- -- 58
2021-02-01 02:00:00 14.3 37 Oeste 67 Oeste 0 -- -- 54
2021-02-01 01:00:00 14.1 37 Oeste 61 Oeste 0 -- -- 56
2021-02-01 00:00:00 13.2 22 Oeste 34 Oeste 0 -- -- 65
2021-01-31 23:00:00 12.4 18 Oeste 27 Oeste 0 -- -- 70
2021-01-31 22:00:00 11.4 11 Oeste 21 Oeste 0 -- -- 74
2021-01-31 21:00:00 11.3 11 Oeste 24 Oeste 0 -- -- 73
2021-01-31 20:00:00 12.2 15 Oeste 34 Oeste 0 -- -- 69
2021-01-31 19:00:00 13.7 26 Oeste 44 Oeste 0 -- -- 64
2021-01-31 18:00:00 14.8 30 Oeste 43 Oeste 0 -- -- 61
2021-01-31 17:00:00 15.6 27 Oeste 46 Oeste 0 -- -- 57
2021-01-31 16:00:00 14.4 33 Oeste 58 Oeste 0 -- -- 56
2021-01-31 15:00:00 15.3 34 Oeste 52 Oeste 0 -- -- 52
2021-01-31 14:00:00 13.6 39 Oeste 68 Oeste 0 -- -- 52
2021-01-31 13:00:00 13.5 34 Oeste 89 Oeste 0 -- -- 52
2021-01-31 12:00:00 13 45 Oeste 80 Oeste 0 -- -- 52
2021-01-31 11:00:00 12.1 49 Oeste 72 Oeste 0 -- -- 55
2021-01-31 10:00:00 10.1 39 Oeste 60 Oeste 0 -- -- 63
2021-01-31 09:00:00 8.4 29 Oeste 46 Oeste 0 -- -- 70
2021-01-31 08:00:00 8.1 27 Oeste 35 Oeste 0 -- -- 69
2021-01-31 07:00:00 8.4 23 Oeste 39 Oeste 0 -- -- 67
2021-01-31 06:00:00 9.4 26 Oeste 44 Oeste 0 -- -- 64
2021-01-31 05:00:00 9.5 31 Oeste 44 Oeste 0 -- -- 63
2021-01-31 04:00:00 8.9 26 Oeste 39 Oeste 0 -- -- 65
2021-01-31 03:00:00 9 23 Oeste 45 Oeste 0 -- -- 67
2021-01-31 02:00:00 9 29 Oeste 49 Oeste 0 -- -- 67
2021-01-31 01:00:00 8.6 27 Oeste 45 Oeste 0 -- -- 71
2021-01-31 00:00:00 7.3 16 Oeste 26 Oeste 0 -- -- 77